Time;durP1;ratioP1;P1;durP2;ratioP2;P2;SDS_P1;SDS_P2;PMS_P1;PMS_P2;Temp;Humidity;BMP_temperature;BMP_pressure;BME280_temperature;BME280_humidity;BME280_pressure;Samples;Min_cycle;Max_cycle;Signal;HPM_P1;HPM_P2
2021/08/11 00:00:20;;;;;;;5.32;3.17;;;12.70;99.90;;;;;;5102687;28;20036;-79
2021/08/11 00:02:46;;;;;;;2.88;2.42;;;12.70;99.90;;;;;;5112667;28;20086;-80
2021/08/11 00:05:12;;;;;;;5.53;2.70;;;12.70;99.90;;;;;;5105036;28;20048;-79
2021/08/11 00:07:38;;;;;;;3.10;2.65;;;12.70;99.90;;;;;;5114851;28;20076;-78
2021/08/11 00:10:06;;;;;;;4.47;2.90;;;12.80;99.90;;;;;;5109468;28;20046;-78
2021/08/11 00:12:32;;;;;;;4.47;3.03;;;12.80;99.90;;;;;;5107848;28;20388;-78
2021/08/11 00:15:05;;;;;;;3.70;3.08;;;12.80;99.90;;;;;;5107096;28;20036;-78
2021/08/11 00:17:31;;;;;;;5.15;2.97;;;12.80;99.90;;;;;;5112898;28;20035;-81
2021/08/11 00:19:57;;;;;;;4.45;3.17;;;12.80;99.90;;;;;;5089280;28;20039;-79
2021/08/11 00:22:22;;;;;;;4.93;2.95;;;12.90;99.90;;;;;;5094369;28;20101;-79
2021/08/11 00:24:48;;;;;;;6.28;2.78;;;12.90;99.90;;;;;;5108313;28;20051;-79
2021/08/11 00:27:14;;;;;;;3.65;2.22;;;13.00;99.90;;;;;;5111960;28;20042;-79
2021/08/11 00:29:40;;;;;;;3.13;2.42;;;13.10;99.90;;;;;;5088707;28;20330;-79
2021/08/11 00:32:06;;;;;;;5.70;3.15;;;13.20;99.90;;;;;;5093075;28;20066;-80
2021/08/11 00:34:31;;;;;;;;;;;13.30;99.90;;;;;;5085023;28;20036;-79
2021/08/11 00:36:57;;;;;;;9.88;3.22;;;13.40;99.90;;;;;;5103408;28;19920;-79
2021/08/11 00:39:23;;;;;;;9.45;3.13;;;13.40;99.90;;;;;;5095893;28;20065;-80
2021/08/11 00:41:49;;;;;;;3.58;3.22;;;13.50;99.90;;;;;;5086732;28;20068;-76
2021/08/11 00:44:15;;;;;;;3.50;3.15;;;13.50;99.90;;;;;;5094033;28;20412;-79
2021/08/11 00:46:45;;;;;;;5.07;2.45;;;13.50;99.90;;;;;;5092635;28;20111;-79
2021/08/11 00:49:14;;;;;;;8.07;3.22;;;13.50;99.90;;;;;;5106976;28;20382;-79
2021/08/11 00:51:41;;;;;;;5.30;3.28;;;13.50;99.90;;;;;;5113047;27;20097;-78
2021/08/11 00:54:08;;;;;;;7.45;3.10;;;13.50;99.90;;;;;;5092913;28;20548;-78
2021/08/11 00:56:36;;;;;;;4.53;2.70;;;13.40;99.90;;;;;;5097939;28;20043;-78
2021/08/11 00:59:04;;;;;;;3.72;2.53;;;13.40;99.90;;;;;;5095950;28;20063;-79
2021/08/11 01:01:36;;;;;;;3.63;2.72;;;13.40;99.90;;;;;;5096460;28;20036;-78
2021/08/11 01:04:02;;;;;;;5.45;3.38;;;13.40;99.90;;;;;;5101514;28;20464;-78
2021/08/11 01:06:30;;;;;;;7.22;3.63;;;13.30;99.90;;;;;;5114036;28;20028;-78
2021/08/11 01:08:56;;;;;;;2.83;2.40;;;13.30;99.90;;;;;;5068058;28;20520;-78
2021/08/11 01:11:24;;;;;;;5.90;2.70;;;13.10;99.90;;;;;;5098783;28;20062;-79
2021/08/11 01:13:51;;;;;;;4.88;3.70;;;13.20;99.90;;;;;;5085646;28;20134;-78
2021/08/11 01:16:17;;;;;;;5.18;2.83;;;13.20;99.90;;;;;;5108854;28;20108;-78
2021/08/11 01:18:43;;;;;;;12.45;2.65;;;13.10;99.90;;;;;;5082335;28;20089;-77
2021/08/11 01:21:16;;;;;;;5.07;3.83;;;13.10;99.90;;;;;;5092296;28;20044;-77
2021/08/11 01:24:01;;;;;;;2.83;2.40;;;13.10;99.90;;;;;;5099227;28;20040;-77
2021/08/11 01:26:36;;;;;;;2.95;2.25;;;13.10;99.90;;;;;;5079431;28;20035;-76
2021/08/11 01:29:07;;;;;;;4.03;1.70;;;13.00;99.90;;;;;;5095067;28;20458;-77
2021/08/11 01:31:57;;;;;;;3.83;2.72;;;13.00;99.90;;;;;;5077037;28;20068;-78
2021/08/11 01:34:38;;;;;;;4.75;2.88;;;13.00;99.90;;;;;;5103465;28;20032;-77
2021/08/11 01:37:08;;;;;;;4.55;2.90;;;12.90;99.90;;;;;;5085014;28;20137;-77
2021/08/11 01:39:38;;;;;;;8.63;2.72;;;12.90;99.90;;;;;;5087454;28;20126;-77
2021/08/11 01:42:12;;;;;;;4.38;2.65;;;12.90;99.90;;;;;;5101570;28;20115;-77
2021/08/11 01:44:52;;;;;;;7.47;3.03;;;12.90;99.90;;;;;;5093571;28;20039;-77
2021/08/11 01:47:22;;;;;;;7.03;2.67;;;12.90;99.90;;;;;;5073876;28;20040;-78
2021/08/11 01:49:49;;;;;;;9.98;3.88;;;12.80;99.90;;;;;;5106277;28;20044;-78
2021/08/11 01:52:16;;;;;;;7.20;3.25;;;12.80;99.90;;;;;;5099701;28;20048;-78
2021/08/11 01:54:43;;;;;;;6.38;4.38;;;12.80;99.90;;;;;;5095051;28;20051;-77
2021/08/11 01:57:11;;;;;;;6.18;2.55;;;12.80;99.90;;;;;;5103594;28;20042;-77
2021/08/11 01:59:39;;;;;;;3.20;2.40;;;12.80;99.90;;;;;;5090650;28;20043;-78
2021/08/11 02:02:06;;;;;;;3.97;1.77;;;12.80;99.90;;;;;;5109109;28;20040;-79
2021/08/11 02:04:33;;;;;;;6.65;3.35;;;12.80;99.90;;;;;;5113269;27;20044;-78
2021/08/11 02:07:00;;;;;;;3.20;2.90;;;12.70;99.90;;;;;;5078729;28;20032;-78
2021/08/11 02:09:27;;;;;;;;;;;12.70;99.90;;;;;;5086711;28;20454;-78
2021/08/11 02:11:55;;;;;;;3.25;2.92;;;12.70;99.90;;;;;;5109530;28;19920;-78
2021/08/11 02:14:22;;;;;;;3.53;2.38;;;12.70;99.90;;;;;;5106858;28;20032;-78
2021/08/11 02:16:47;;;;;;;3.25;2.03;;;12.60;99.90;;;;;;5090443;28;20044;-79
2021/08/11 02:19:13;;;;;;;5.15;3.70;;;12.50;99.90;;;;;;5106550;28;20031;-78
2021/08/11 02:21:40;;;;;;;7.95;4.45;;;12.50;99.90;;;;;;5077873;28;20056;-78
2021/08/11 02:24:10;;;;;;;5.05;2.78;;;12.50;99.90;;;;;;5096845;28;20042;-79
2021/08/11 02:26:48;;;;;;;4.53;3.40;;;12.40;99.90;;;;;;5109041;28;20040;-79
2021/08/11 02:29:34;;;;;;;4.90;3.85;;;12.40;99.90;;;;;;5099745;28;20451;-78
2021/08/11 02:32:25;;;;;;;13.52;3.63;;;12.30;99.90;;;;;;5090476;28;20080;-78
2021/08/11 02:34:57;;;;;;;4.10;2.70;;;12.30;99.90;;;;;;5104254;28;20035;-79
2021/08/11 02:37:48;;;;;;;5.85;3.90;;;12.30;99.90;;;;;;5099396;28;20036;-78
2021/08/11 02:40:39;;;;;;;7.95;2.35;;;12.30;99.90;;;;;;5056172;28;20388;-79
2021/08/11 02:43:26;;;;;;;4.50;3.30;;;12.30;99.90;;;;;;5090953;28;20043;-79
2021/08/11 02:46:05;;;;;;;4.97;2.95;;;12.30;99.90;;;;;;5102003;28;20040;-79
2021/08/11 02:48:32;;;;;;;5.05;3.60;;;12.20;99.90;;;;;;5090750;28;20047;-79
2021/08/11 02:51:00;;;;;;;5.50;3.60;;;12.30;99.90;;;;;;5094160;28;20489;-79
2021/08/11 02:53:27;;;;;;;7.28;3.95;;;12.30;99.90;;;;;;5092488;28;20040;-79
2021/08/11 02:55:54;;;;;;;3.78;2.42;;;12.20;99.90;;;;;;5099012;28;20036;-79
2021/08/11 02:58:20;;;;;;;;;;;12.20;99.90;;;;;;5100652;28;20046;-79
2021/08/11 03:00:51;;;;;;;7.20;3.30;;;12.20;99.90;;;;;;5095804;28;19957;-80
2021/08/11 03:03:17;;;;;;;5.43;3.22;;;12.20;99.90;;;;;;5099518;28;20050;-80
2021/08/11 03:05:43;;;;;;;;;;;12.20;99.90;;;;;;5111492;28;20384;-79
2021/08/11 03:08:09;;;;;;;9.05;2.58;;;12.20;99.90;;;;;;5119968;28;19924;-79
2021/08/11 03:10:38;;;;;;;5.05;2.95;;;12.20;99.90;;;;;;5091956;28;20060;-79
2021/08/11 03:13:09;;;;;;;12.55;4.30;;;12.20;99.90;;;;;;5092099;28;20420;-79
2021/08/11 03:15:36;;;;;;;5.68;2.80;;;12.10;99.90;;;;;;5073591;28;20028;-78
2021/08/11 03:18:02;;;;;;;4.75;2.40;;;12.20;99.90;;;;;;5115006;28;20078;-79
2021/08/11 03:20:29;;;;;;;;;;;12.30;99.90;;;;;;5073495;28;20052;-78
2021/08/11 03:22:55;;;;;;;5.88;2.92;;;12.40;99.90;;;;;;5099727;28;19969;-79
2021/08/11 03:25:21;;;;;;;2.63;2.33;;;12.50;99.90;;;;;;5075327;28;20489;-79
2021/08/11 03:27:47;;;;;;;5.72;4.78;;;12.50;99.90;;;;;;5076829;28;20036;-80
2021/08/11 03:30:13;;;;;;;5.75;2.40;;;12.50;99.90;;;;;;5116730;27;20040;-81
2021/08/11 03:32:39;;;;;;;2.85;2.60;;;12.50;99.90;;;;;;5104761;28;20109;-80
2021/08/11 03:35:09;;;;;;;5.18;3.22;;;12.50;99.90;;;;;;5090809;28;20048;-81
2021/08/11 03:37:34;;;;;;;6.63;3.53;;;12.50;99.90;;;;;;5098395;28;20170;-80
2021/08/11 03:40:00;;;;;;;6.93;3.75;;;12.40;99.90;;;;;;5111026;28;20065;-80
2021/08/11 03:42:26;;;;;;;6.65;2.92;;;12.40;99.90;;;;;;5080660;28;20040;-80
2021/08/11 03:44:52;;;;;;;4.85;4.05;;;12.40;99.90;;;;;;5079887;28;20092;-80
2021/08/11 03:47:17;;;;;;;7.07;4.20;;;12.40;99.90;;;;;;5104863;28;20040;-80
2021/08/11 03:49:46;;;;;;;3.63;2.95;;;12.40;99.90;;;;;;5114452;28;20453;-82
2021/08/11 03:52:12;;;;;;;7.82;3.95;;;12.40;99.90;;;;;;5096140;28;20123;-80
2021/08/11 03:54:38;;;;;;;6.68;3.85;;;12.40;99.90;;;;;;5090587;28;20532;-82
2021/08/11 03:57:04;;;;;;;3.75;2.92;;;12.50;99.90;;;;;;5107491;28;20134;-81
2021/08/11 03:59:30;;;;;;;4.15;3.00;;;12.50;99.90;;;;;;5102393;28;20065;-80
2021/08/11 04:01:55;;;;;;;3.88;2.50;;;12.50;99.90;;;;;;5105339;28;20046;-82
2021/08/11 04:04:21;;;;;;;5.43;3.00;;;12.50;99.90;;;;;;5093951;28;20042;-83
2021/08/11 04:06:48;;;;;;;4.32;2.90;;;12.50;99.90;;;;;;5102185;28;20034;-82
2021/08/11 04:09:13;;;;;;;3.72;2.22;;;12.50;99.90;;;;;;5088018;28;20059;-82
2021/08/11 04:11:39;;;;;;;3.20;2.90;;;12.40;99.90;;;;;;5105568;28;20023;-81
2021/08/11 04:14:07;;;;;;;5.85;2.83;;;12.40;99.90;;;;;;5101487;28;20044;-81
2021/08/11 04:16:32;;;;;;;3.95;3.33;;;12.40;99.90;;;;;;5075263;28;20038;-80
2021/08/11 04:18:59;;;;;;;4.95;3.75;;;12.40;99.90;;;;;;5106408;28;20052;-82
2021/08/11 04:21:25;;;;;;;5.00;2.97;;;12.40;99.90;;;;;;5093691;28;20036;-82
2021/08/11 04:23:51;;;;;;;3.03;2.65;;;12.40;99.90;;;;;;5075769;28;20401;-82
2021/08/11 04:26:19;;;;;;;3.17;2.35;;;12.40;99.90;;;;;;5076115;28;20035;-81
2021/08/11 04:28:45;;;;;;;2.88;1.95;;;12.50;99.90;;;;;;5082071;28;20490;-83
2021/08/11 04:31:11;;;;;;;4.88;3.30;;;12.50;99.90;;;;;;5092967;28;20036;-81
2021/08/11 04:33:37;;;;;;;3.95;3.58;;;12.50;99.90;;;;;;5100381;28;20070;-81
2021/08/11 04:36:03;;;;;;;4.95;2.97;;;12.60;99.90;;;;;;5075880;28;20405;-81
2021/08/11 04:38:29;;;;;;;3.00;2.75;;;12.70;99.90;;;;;;5096401;28;20062;-80
2021/08/11 04:40:55;;;;;;;3.75;2.47;;;12.80;99.90;;;;;;5078854;28;20176;-80
2021/08/11 04:43:22;;;;;;;5.43;2.72;;;12.80;99.90;;;;;;5060577;28;20036;-81
2021/08/11 04:45:47;;;;;;;3.85;2.90;;;12.90;99.90;;;;;;5094864;28;20092;-83
2021/08/11 04:48:13;;;;;;;5.78;2.42;;;13.00;99.90;;;;;;5100775;28;20036;-82
2021/08/11 04:50:39;;;;;;;2.97;2.67;;;13.10;99.90;;;;;;5113768;28;20067;-82
2021/08/11 04:53:05;;;;;;;3.10;2.28;;;13.10;99.90;;;;;;5091552;28;20130;-82
2021/08/11 04:55:31;;;;;;;8.45;4.15;;;13.20;99.90;;;;;;5104494;28;20040;-81
2021/08/11 04:57:58;;;;;;;3.00;2.50;;;13.20;99.90;;;;;;5102478;28;20044;-86
2021/08/11 05:00:24;;;;;;;6.50;3.78;;;13.20;99.90;;;;;;5083636;28;20071;-85
2021/08/11 05:02:50;;;;;;;3.97;2.45;;;13.30;99.90;;;;;;5107455;28;20067;-78
2021/08/11 05:05:16;;;;;;;5.03;3.08;;;13.40;99.90;;;;;;5111941;28;20039;-77
2021/08/11 05:07:42;;;;;;;3.13;2.20;;;13.50;99.90;;;;;;5108530;28;20039;-77
2021/08/11 05:10:08;;;;;;;6.93;2.55;;;13.60;99.90;;;;;;5092498;28;20520;-78
2021/08/11 05:12:34;;;;;;;5.18;4.03;;;13.70;99.90;;;;;;5104697;28;20043;-80
2021/08/11 05:15:05;;;;;;;3.70;2.72;;;13.70;99.90;;;;;;5090827;28;20039;-80
2021/08/11 05:17:31;;;;;;;8.32;3.53;;;13.80;99.90;;;;;;5107976;28;20035;-81
2021/08/11 05:19:57;;;;;;;5.03;2.97;;;13.80;99.90;;;;;;5112684;28;20040;-81
2021/08/11 05:22:23;;;;;;;8.07;3.20;;;13.90;99.90;;;;;;5111254;28;20089;-82
2021/08/11 05:24:49;;;;;;;;;;;13.90;99.90;;;;;;5110308;28;20059;-81
2021/08/11 05:27:16;;;;;;;4.18;2.20;;;13.90;99.90;;;;;;5108165;28;19997;-81
2021/08/11 05:29:44;;;;;;;2.85;2.47;;;13.90;99.90;;;;;;5092612;28;20058;-81
2021/08/11 05:32:11;;;;;;;4.13;2.85;;;13.90;99.90;;;;;;5109667;28;20028;-81
2021/08/11 05:34:37;;;;;;;3.78;3.38;;;14.00;99.90;;;;;;5107714;28;20040;-81
2021/08/11 05:37:04;;;;;;;3.47;2.72;;;14.00;99.90;;;;;;5112294;28;20038;-80
2021/08/11 05:39:30;;;;;;;7.50;3.45;;;14.00;99.90;;;;;;5107948;28;20646;-82
2021/08/11 05:41:56;;;;;;;4.93;3.47;;;14.10;99.90;;;;;;5080077;28;20039;-81
2021/08/11 05:44:22;;;;;;;2.35;2.05;;;14.10;99.90;;;;;;5090503;28;20043;-80
2021/08/11 05:46:49;;;;;;;;;;;14.20;99.90;;;;;;5081693;28;20383;-80
2021/08/11 05:49:14;;;;;;;5.95;3.15;;;14.20;99.90;;;;;;5109261;28;19922;-79
2021/08/11 05:51:40;;;;;;;8.18;2.90;;;14.30;99.90;;;;;;5109035;28;20035;-79
2021/08/11 05:54:06;;;;;;;2.58;2.33;;;14.40;99.90;;;;;;5092627;28;20502;-79
2021/08/11 05:56:32;;;;;;;;;;;14.50;99.90;;;;;;5102362;28;20035;-79
2021/08/11 05:58:59;;;;;;;2.42;2.17;;;14.70;99.90;;;;;;5111436;28;19929;-78
2021/08/11 06:01:25;;;;;;;;;;;14.80;99.90;;;;;;5091625;28;20039;-80
2021/08/11 06:03:55;;;;;;;2.90;1.83;;;14.90;99.90;;;;;;5102502;28;19915;-80
2021/08/11 06:06:20;;;;;;;3.15;2.10;;;14.90;99.90;;;;;;5111178;28;20047;-80
2021/08/11 06:08:47;;;;;;;4.32;2.65;;;14.90;99.90;;;;;;5108933;28;20048;-80
2021/08/11 06:11:13;;;;;;;4.88;2.67;;;14.90;99.90;;;;;;5084538;28;20084;-79
2021/08/11 06:13:39;;;;;;;3.72;2.60;;;15.00;99.90;;;;;;5086796;28;20091;-80
2021/08/11 06:16:07;;;;;;;5.70;2.70;;;15.00;99.90;;;;;;5073755;28;20051;-80
2021/08/11 06:18:33;;;;;;;3.03;2.72;;;15.00;99.90;;;;;;5090885;28;20037;-79
2021/08/11 06:20:59;;;;;;;;;;;15.00;99.90;;;;;;5112182;28;20430;-82
2021/08/11 06:23:24;;;;;;;4.03;2.75;;;15.00;99.90;;;;;;5112781;28;19915;-79
2021/08/11 06:25:50;;;;;;;3.88;2.13;;;15.00;99.90;;;;;;5113149;28;20392;-79
2021/08/11 06:28:16;;;;;;;3.72;2.47;;;15.10;99.90;;;;;;5098144;28;20053;-79
2021/08/11 06:30:42;;;;;;;2.83;2.03;;;15.20;99.90;;;;;;5111831;28;20063;-80
2021/08/11 06:33:08;;;;;;;3.80;2.78;;;15.30;99.90;;;;;;5093513;28;20039;-80
2021/08/11 06:35:34;;;;;;;;;;;15.50;99.90;;;;;;5093807;28;20492;-80
2021/08/11 06:38:00;;;;;;;3.80;2.83;;;15.60;99.90;;;;;;5103214;28;19916;-80
2021/08/11 06:40:26;;;;;;;4.63;2.35;;;15.70;99.90;;;;;;5101659;28;20040;-80
2021/08/11 06:42:52;;;;;;;2.80;1.95;;;15.80;99.90;;;;;;5093523;28;20035;-81
2021/08/11 06:45:18;;;;;;;3.08;2.00;;;15.90;99.90;;;;;;5093781;28;20173;-79
2021/08/11 06:47:44;;;;;;;4.90;3.75;;;15.90;99.90;;;;;;5101455;28;20110;-79
2021/08/11 06:50:11;;;;;;;5.25;2.40;;;16.10;99.90;;;;;;5112123;28;20484;-80
2021/08/11 06:52:38;;;;;;;2.25;1.98;;;16.10;99.90;;;;;;5093337;28;20051;-80
2021/08/11 06:55:07;;;;;;;3.40;2.50;;;16.20;99.90;;;;;;5112280;28;20036;-79
2021/08/11 06:57:33;;;;;;;2.97;2.08;;;16.40;99.90;;;;;;5111077;28;20081;-81
2021/08/11 06:59:59;;;;;;;3.42;2.17;;;16.60;99.90;;;;;;5103289;27;20035;-80
2021/08/11 07:02:25;;;;;;;;;;;16.70;99.90;;;;;;5116911;27;20040;-81
2021/08/11 07:04:51;;;;;;;5.57;2.88;;;16.80;99.90;;;;;;5098491;28;20322;-80
2021/08/11 07:07:17;;;;;;;3.58;1.55;;;16.80;99.90;;;;;;5097820;28;20060;-80
2021/08/11 07:09:43;;;;;;;4.35;2.30;;;16.80;99.90;;;;;;5097635;28;20080;-80
2021/08/11 07:12:08;;;;;;;;;;;16.90;99.90;;;;;;5116813;28;20035;-80
2021/08/11 07:14:34;;;;;;;5.63;2.83;;;17.00;99.90;;;;;;5120440;27;19916;-80
2021/08/11 07:17:02;;;;;;;3.70;2.75;;;17.10;99.90;;;;;;5103012;28;20054;-81
2021/08/11 07:19:28;;;;;;;2.42;2.10;;;17.30;99.90;;;;;;5098406;28;20074;-80
2021/08/11 07:21:53;;;;;;;;;;;17.40;99.90;;;;;;5096721;28;20070;-80
2021/08/11 07:24:20;;;;;;;3.42;1.58;;;17.40;99.90;;;;;;5120140;27;19924;-80
2021/08/11 07:26:46;;;;;;;2.38;1.40;;;17.40;99.90;;;;;;5108176;28;20456;-80
2021/08/11 07:29:11;;;;;;;;;;;17.40;99.90;;;;;;5107967;28;20036;-80
2021/08/11 07:31:37;;;;;;;2.30;1.90;;;17.40;99.90;;;;;;5108331;28;19919;-80
2021/08/11 07:34:03;;;;;;;;;;;17.60;99.90;;;;;;5080757;28;20564;-80
2021/08/11 07:36:29;;;;;;;3.33;1.30;;;17.70;99.90;;;;;;5111112;28;19916;-81
2021/08/11 07:38:55;;;;;;;;;;;18.00;99.90;;;;;;5089904;28;20070;-81
2021/08/11 07:41:21;;;;;;;1.73;1.57;;;18.10;99.90;;;;;;5097028;28;20372;-81
2021/08/11 07:43:47;;;;;;;;;;;18.20;99.90;;;;;;5115207;28;20067;-81
2021/08/11 07:46:13;;;;;;;2.08;1.73;;;18.30;99.90;;;;;;5123779;27;20385;-81
2021/08/11 07:48:38;;;;;;;;;;;18.40;99.90;;;;;;5107592;28;20400;-80
2021/08/11 07:51:05;;;;;;;2.78;2.10;;;18.50;99.90;;;;;;5114663;28;19916;-80
2021/08/11 07:53:31;;;;;;;;;;;18.50;99.90;;;;;;5105101;28;20062;-80
2021/08/11 07:55:57;;;;;;;2.40;2.20;;;18.60;99.90;;;;;;5114763;28;20366;-80
2021/08/11 07:58:25;;;;;;;2.35;1.60;;;18.60;99.90;;;;;;5114633;28;20106;-80
2021/08/11 08:00:54;;;;;;;2.70;1.92;;;18.60;99.90;;;;;;5097399;28;20092;-80
2021/08/11 08:03:19;;;;;;;2.45;1.85;;;18.70;99.90;;;;;;5113819;28;20063;-81
2021/08/11 08:05:45;;;;;;;;;;;18.80;99.90;;;;;;5114636;28;20469;-81
2021/08/11 08:08:11;;;;;;;2.90;1.55;;;18.90;99.90;;;;;;5115507;28;19922;-79
2021/08/11 08:10:37;;;;;;;;;;;19.10;99.90;;;;;;5117327;28;20070;-80
2021/08/11 08:13:03;;;;;;;1.65;1.30;;;19.10;99.90;;;;;;5115420;28;19916;-81
2021/08/11 08:15:29;;;;;;;;;;;19.10;99.90;;;;;;5097474;28;20108;-80
2021/08/11 08:17:56;;;;;;;3.13;2.10;;;19.20;99.90;;;;;;5114349;28;19919;-81
2021/08/11 08:20:21;;;;;;;;;;;19.20;99.90;;;;;;5115368;28;20036;-81
2021/08/11 08:22:48;;;;;;;4.38;1.50;;;19.40;99.90;;;;;;5095937;28;19915;-80
2021/08/11 08:25:20;;;;;;;2.75;2.28;;;19.50;99.90;;;;;;5114618;28;20032;-80
2021/08/11 08:27:46;;;;;;;6.22;1.60;;;19.70;99.90;;;;;;5114462;28;20044;-80
2021/08/11 08:30:12;;;;;;;4.10;1.92;;;19.70;99.90;;;;;;5115529;28;20040;-81
2021/08/11 08:32:38;;;;;;;4.75;2.35;;;19.80;99.90;;;;;;5112892;28;20040;-80
2021/08/11 08:35:06;;;;;;;3.22;2.42;;;19.90;99.90;;;;;;5108277;28;20047;-81
2021/08/11 08:37:34;;;;;;;1.67;1.55;;;20.00;99.90;;;;;;5088762;28;20036;-81
2021/08/11 08:40:12;;;;;;;6.97;2.60;;;20.00;99.90;;;;;;5114044;28;20091;-81
2021/08/11 08:42:39;;;;;;;5.80;2.65;;;20.00;99.90;;;;;;5106574;28;20107;-80
2021/08/11 08:45:06;;;;;;;2.80;2.08;;;20.10;99.90;;;;;;5107986;28;20043;-80
2021/08/11 08:47:32;;;;;;;2.55;1.40;;;20.10;99.90;;;;;;5113054;28;20382;-80
2021/08/11 08:50:01;;;;;;;2.63;2.25;;;20.10;99.90;;;;;;5115710;28;20484;-80
2021/08/11 08:52:28;;;;;;;2.38;1.95;;;20.10;99.90;;;;;;5114006;28;20048;-80
2021/08/11 08:54:58;;;;;;;4.55;2.42;;;20.00;99.90;;;;;;5113582;28;20040;-79
2021/08/11 08:57:24;;;;;;;2.50;2.08;;;19.90;99.90;;;;;;5114466;28;20106;-79
2021/08/11 08:59:50;;;;;;;1.92;1.60;;;19.90;99.90;;;;;;5113374;28;20489;-80
2021/08/11 09:02:55;;;;;;;1.73;1.50;;;19.90;99.90;;;;;;5121539;28;20038;-81
2021/08/11 09:05:42;;;;;;;4.28;1.83;;;20.00;99.90;;;;;;5086509;28;20055;-82
2021/08/11 09:08:11;;;;;;;4.32;2.58;;;20.20;99.90;;;;;;5111905;27;20039;-81
2021/08/11 09:10:42;;;;;;;3.70;2.03;;;20.40;99.90;;;;;;5437031;22;20121;-80
2021/08/11 09:13:20;;;;;;;2.33;1.88;;;20.60;99.90;;;;;;5052294;28;20114;-80
2021/08/11 09:16:04;;;;;;;8.45;1.85;;;20.80;99.90;;;;;;5053813;28;20041;-80
2021/08/11 09:18:31;;;;;;;1.13;1.02;;;20.80;99.90;;;;;;5048321;28;20064;-78
2021/08/11 09:20:59;;;;;;;3.08;1.77;;;21.00;99.90;;;;;;5055610;28;20037;-80
2021/08/11 09:23:34;;;;;;;3.92;1.92;;;21.00;99.90;;;;;;5055595;28;20063;-79
2021/08/11 09:26:02;;;;;;;2.40;1.73;;;21.20;99.90;;;;;;5054904;28;20045;-81
2021/08/11 09:28:30;;;;;;;2.75;1.98;;;21.10;99.90;;;;;;5052650;28;20037;-79
2021/08/11 09:31:46;;;;;;;1.88;1.70;;;21.10;99.90;;;;;;5071522;28;20045;-79
2021/08/11 09:34:31;;;;;;;2.90;2.28;;;21.40;99.90;;;;;;5033775;28;20041;-79
2021/08/11 09:37:06;;;;;;;2.50;1.73;;;21.50;99.90;;;;;;5065039;28;20049;-80
2021/08/11 09:39:38;;;;;;;2.30;1.40;;;21.50;99.90;;;;;;5065439;28;20067;-79
2021/08/11 09:42:25;;;;;;;2.42;1.73;;;21.50;99.90;;;;;;5069255;28;20033;-79
2021/08/11 09:45:15;;;;;;;1.83;1.52;;;21.40;99.90;;;;;;5066932;28;20048;-78
2021/08/11 09:47:57;;;;;;;1.67;1.35;;;21.50;99.90;;;;;;5051661;28;20079;-79
2021/08/11 09:50:34;;;;;;;2.70;1.88;;;21.70;99.90;;;;;;5053580;28;20469;-78
2021/08/11 09:53:00;;;;;;;3.65;2.17;;;21.80;99.90;;;;;;5055298;28;20041;-79
2021/08/11 09:55:26;;;;;;;2.88;1.88;;;21.90;99.90;;;;;;5053142;28;20064;-79
2021/08/11 09:57:52;;;;;;;2.35;1.55;;;21.90;99.90;;;;;;5064766;28;20036;-79
2021/08/11 10:00:17;;;;;;;1.38;1.27;;;21.80;99.90;;;;;;5055960;28;20380;-80
2021/08/11 10:02:44;;;;;;;1.67;1.38;;;21.70;99.90;;;;;;5054333;28;20037;-79
2021/08/11 10:05:31;;;;;;;1.83;1.58;;;21.70;99.90;;;;;;5063340;28;20526;-78
2021/08/11 10:07:57;;;;;;;5.47;2.22;;;21.70;99.90;;;;;;5047128;28;20129;-80
2021/08/11 10:10:24;;;;;;;5.50;1.95;;;21.70;99.90;;;;;;5052440;28;20057;-80
2021/08/11 10:12:52;;;;;;;1.52;1.42;;;21.60;99.90;;;;;;5052714;28;20044;-78
2021/08/11 10:15:20;;;;;;;2.45;2.25;;;21.70;99.90;;;;;;5053287;28;20037;-80
2021/08/11 10:17:49;;;;;;;6.88;1.60;;;21.70;99.90;;;;;;5050757;28;20094;-79
2021/08/11 10:20:19;;;;;;;2.10;1.80;;;21.70;99.90;;;;;;5052713;28;20083;-78
2021/08/11 10:22:45;;;;;;;2.05;1.45;;;21.80;99.90;;;;;;5050731;28;20086;-78
2021/08/11 10:25:12;;;;;;;1.58;1.48;;;21.90;99.90;;;;;;5050554;28;20124;-80
2021/08/11 10:27:43;;;;;;;2.10;1.70;;;21.90;99.90;;;;;;5052143;28;20462;-79
2021/08/11 10:30:11;;;;;;;3.67;1.65;;;21.90;99.90;;;;;;5052199;28;20131;-78
2021/08/11 10:32:37;;;;;;;1.42;1.15;;;22.00;99.90;;;;;;5068019;28;20096;-81
2021/08/11 10:35:04;;;;;;;2.42;1.83;;;22.10;99.90;;;;;;5051970;28;20474;-77
2021/08/11 10:37:32;;;;;;;2.45;1.67;;;22.20;99.90;;;;;;5052568;28;20040;-76
2021/08/11 10:40:00;;;;;;;1.92;1.40;;;22.20;99.90;;;;;;5044637;28;20095;-79
2021/08/11 10:42:26;;;;;;;2.28;2.00;;;22.30;99.90;;;;;;5051104;28;20136;-77
2021/08/11 10:45:11;;;;;;;6.05;1.60;;;22.30;99.90;;;;;;5063693;28;20037;-81
2021/08/11 10:47:37;;;;;;;4.30;1.83;;;22.30;99.90;;;;;;5069392;28;20041;-78
2021/08/11 10:50:06;;;;;;;10.13;1.48;;;22.30;99.90;;;;;;5053967;28;20040;-78
2021/08/11 10:53:18;;;;;;;2.17;1.50;;;22.40;99.90;;;;;;5062376;28;20467;-79
2021/08/11 10:55:57;;;;;;;2.22;1.65;;;22.70;99.90;;;;;;5053686;28;20063;-78
2021/08/11 10:58:46;;;;;;;3.28;1.75;;;22.90;99.90;;;;;;5070843;28;20123;-77
2021/08/11 11:01:33;;;;;;;1.23;1.10;;;23.00;99.90;;;;;;5053164;28;20072;-81
2021/08/11 11:04:52;;;;;;;3.17;1.42;;;22.90;99.90;;;;;;5069361;28;20071;-78
2021/08/11 11:08:09;;;;;;;1.23;1.13;;;23.10;99.90;;;;;;5069159;28;20044;-80
2021/08/11 11:10:50;;;;;;;1.33;1.13;;;23.20;99.90;;;;;;5041148;28;20063;-81
2021/08/11 11:13:41;;;;;;;1.73;1.23;;;23.20;99.90;;;;;;5068892;28;20047;-79
2021/08/11 11:16:13;;;;;;;4.07;2.40;;;23.20;99.90;;;;;;5070307;28;20037;-76
2021/08/11 11:19:06;;;;;;;2.33;1.50;;;23.20;99.90;;;;;;5069967;28;20056;-79
2021/08/11 11:21:51;;;;;;;1.77;1.60;;;23.10;99.90;;;;;;5050819;28;20052;-79
2021/08/11 11:24:53;;;;;;;3.58;1.45;;;23.00;99.90;;;;;;5063809;28;20023;-78
2021/08/11 11:27:52;;;;;;;3.78;2.22;;;23.10;99.90;;;;;;5066487;28;20043;-78
2021/08/11 11:30:33;;;;;;;2.58;1.88;;;23.20;99.90;;;;;;5068563;28;20044;-80
2021/08/11 11:33:37;;;;;;;1.85;1.67;;;23.40;99.90;;;;;;5067173;28;20041;-79
2021/08/11 11:36:20;;;;;;;3.97;2.30;;;23.70;99.90;;;;;;5052501;28;20105;-79
2021/08/11 11:39:07;;;;;;;3.35;2.58;;;23.80;99.90;;;;;;5048130;28;20040;-78
2021/08/11 11:41:34;;;;;;;3.55;1.65;;;23.70;99.90;;;;;;5049470;28;20037;-78
2021/08/11 11:44:45;;;;;;;4.47;1.70;;;23.60;99.90;;;;;;5051616;28;20036;-79
2021/08/11 11:47:12;;;;;;;3.47;1.75;;;23.60;99.90;;;;;;5051668;28;20127;-80
2021/08/11 11:49:39;;;;;;;3.58;2.08;;;23.70;99.90;;;;;;5055484;28;20036;-80
2021/08/11 11:52:16;;;;;;;4.07;2.35;;;23.80;99.90;;;;;;5055190;28;20491;-80
2021/08/11 11:54:46;;;;;;;3.80;1.65;;;23.80;99.90;;;;;;5042359;28;20033;-80
2021/08/11 11:57:14;;;;;;;1.60;1.50;;;23.80;99.90;;;;;;5045824;28;20490;-80
2021/08/11 11:59:47;;;;;;;3.83;1.65;;;24.00;99.90;;;;;;5055447;28;20048;-79
2021/08/11 12:02:23;;;;;;;2.70;1.80;;;24.10;99.90;;;;;;5053887;28;20540;-81
2021/08/11 12:05:03;;;;;;;3.35;2.10;;;24.20;99.90;;;;;;5054817;28;20032;-79
2021/08/11 12:07:34;;;;;;;5.50;1.83;;;24.30;99.90;;;;;;5055102;28;20063;-76
2021/08/11 12:10:04;;;;;;;9.88;1.70;;;24.40;99.90;;;;;;5054651;28;20037;-78
2021/08/11 12:12:30;;;;;;;3.65;1.90;;;;;;;;;;5054110;28;20498;-76
2021/08/11 12:15:19;;;;;;;5.38;2.22;;;24.60;99.90;;;;;;5053369;28;20037;-78
2021/08/11 12:17:45;;;;;;;2.30;1.35;;;24.40;99.90;;;;;;5052573;28;20482;-78
2021/08/11 12:20:32;;;;;;;3.25;1.88;;;24.40;99.90;;;;;;5054658;28;20489;-77
2021/08/11 12:23:02;;;;;;;2.22;1.52;;;24.60;99.90;;;;;;5054362;28;20041;-78
2021/08/11 12:25:31;;;;;;;5.97;1.67;;;24.50;99.90;;;;;;5055198;28;20049;-76
2021/08/11 12:28:21;;;;;;;2.70;1.45;;;24.50;99.90;;;;;;5054395;28;20037;-78
2021/08/11 12:31:03;;;;;;;3.30;1.85;;;24.70;99.90;;;;;;5054630;28;20037;-78
2021/08/11 12:33:31;;;;;;;3.47;2.00;;;24.90;99.50;;;;;;5043616;28;20151;-77
2021/08/11 12:35:58;;;;;;;8.02;1.50;;;25.10;99.30;;;;;;5048724;28;20089;-77
2021/08/11 12:38:35;;;;;;;1.88;1.42;;;25.30;99.90;;;;;;5055735;28;20120;-79
2021/08/11 12:41:20;;;;;;;2.20;1.27;;;25.60;99.80;;;;;;5057354;28;20029;-77
2021/08/11 12:43:50;;;;;;;5.60;1.58;;;25.80;99.90;;;;;;5065503;28;20421;-80
2021/08/11 12:46:17;;;;;;;2.22;1.63;;;26.00;99.90;;;;;;5055846;28;20121;-79
2021/08/11 12:48:43;;;;;;;1.25;1.00;;;25.90;99.10;;;;;;5060665;28;20467;-79
2021/08/11 12:51:29;;;;;;;1.52;1.42;;;25.70;99.90;;;;;;5052571;28;20474;-79
2021/08/11 12:54:05;;;;;;;1.73;1.23;;;25.70;99.70;;;;;;5053486;28;20136;-80
2021/08/11 12:56:33;;;;;;;2.40;1.88;;;25.60;99.50;;;;;;5046154;28;20414;-82
2021/08/11 12:59:06;;;;;;;2.15;1.25;;;25.40;98.30;;;;;;5047336;28;20048;-78
2021/08/11 13:01:34;;;;;;;1.90;1.63;;;25.30;99.40;;;;;;5053537;28;20037;-79
2021/08/11 13:04:02;;;;;;;5.53;1.52;;;25.30;98.50;;;;;;5053362;28;20094;-80
2021/08/11 13:06:40;;;;;;;1.52;1.08;;;25.40;99.30;;;;;;5059434;28;20033;-80
2021/08/11 13:09:18;;;;;;;2.08;1.55;;;25.80;99.90;;;;;;5050113;28;20062;-79